createdAt,value
2017-11-24T00:01:25.476Z,88.20
2017-11-24T00:03:56.183Z,87.60
2017-11-24T00:06:27.948Z,88.00
2017-11-24T00:08:59.868Z,88.00
2017-11-24T00:11:30.747Z,87.50
2017-11-24T00:14:03.029Z,87.30
2017-11-24T00:16:34.280Z,87.30
2017-11-24T00:19:05.257Z,87.70
2017-11-24T00:21:36.433Z,86.80
2017-11-24T00:24:08.454Z,86.20
2017-11-24T00:26:39.455Z,86.30
2017-11-24T00:29:10.387Z,86.10
2017-11-24T00:31:41.832Z,85.20
2017-11-24T00:34:12.851Z,85.20
2017-11-24T00:36:45.111Z,85.70
2017-11-24T00:39:16.857Z,85.60
2017-11-24T00:41:47.726Z,86.40
2017-11-24T00:44:18.943Z,85.90
2017-11-24T00:46:49.907Z,86.20
2017-11-24T00:49:21.456Z,86.50
2017-11-24T00:51:53.304Z,86.70
2017-11-24T00:54:25.672Z,88.50
2017-11-24T00:56:57.284Z,88.60
2017-11-24T00:59:29.152Z,88.00
2017-11-24T01:02:00.162Z,87.40
2017-11-24T01:04:31.683Z,87.20
2017-11-24T01:07:02.621Z,88.60
2017-11-24T01:09:33.648Z,88.20
2017-11-24T01:12:06.352Z,88.00
2017-11-24T01:14:37.470Z,87.90
2017-11-24T01:17:09.903Z,88.10
2017-11-24T01:19:41.033Z,88.20
2017-11-24T01:22:13.826Z,88.80
2017-11-24T01:24:45.626Z,88.70
2017-11-24T01:27:17.018Z,87.90
2017-11-24T01:29:48.102Z,88.60
2017-11-24T01:32:19.705Z,88.50
2017-11-24T01:34:51.969Z,87.90
2017-11-24T01:37:23.353Z,87.90
2017-11-24T01:39:55.413Z,88.50
2017-11-24T01:42:27.297Z,88.80
2017-11-24T01:44:59.146Z,88.20
2017-11-24T01:47:30.420Z,88.50
2017-11-24T01:50:01.708Z,88.90
2017-11-24T01:52:34.004Z,88.60
2017-11-24T01:55:05.875Z,88.40
2017-11-24T01:57:37.647Z,87.80
2017-11-24T02:00:10.177Z,87.80
2017-11-24T02:02:42.006Z,87.90
2017-11-24T02:05:13.185Z,88.40
2017-11-24T02:07:44.223Z,88.90
2017-11-24T02:10:15.935Z,89.10
2017-11-24T02:12:48.428Z,89.40
2017-11-24T02:15:20.672Z,89.30
2017-11-24T02:17:51.850Z,89.40
2017-11-24T02:20:22.780Z,89.70
2017-11-24T02:22:55.483Z,89.90
2017-11-24T02:25:26.964Z,89.80
2017-11-24T02:27:58.326Z,88.90
2017-11-24T02:30:29.288Z,89.80
2017-11-24T02:33:00.350Z,89.60
2017-11-24T02:35:32.473Z,89.90
2017-11-24T02:38:04.120Z,89.50
2017-11-24T02:40:35.408Z,90.40
2017-11-24T02:43:06.364Z,90.10
2017-11-24T02:45:37.419Z,90.00
2017-11-24T02:48:08.673Z,89.40
2017-11-24T02:50:39.698Z,89.30
2017-11-24T02:53:11.063Z,89.20
2017-11-24T02:55:42.321Z,89.40
2017-11-24T02:58:13.604Z,89.50
2017-11-24T03:00:46.131Z,89.70
2017-11-24T03:03:17.747Z,89.70
2017-11-24T03:05:48.839Z,90.00
2017-11-24T03:08:20.470Z,89.80
2017-11-24T03:10:52.120Z,90.00
2017-11-24T03:13:24.094Z,90.30
2017-11-24T03:15:55.299Z,90.10
2017-11-24T03:18:27.058Z,90.00
2017-11-24T03:20:58.190Z,90.10
2017-11-24T03:23:29.450Z,90.10
2017-11-24T03:26:01.159Z,90.60
2017-11-24T03:28:32.824Z,90.40
2017-11-24T03:31:04.346Z,90.50
2017-11-24T03:33:35.184Z,90.60
2017-11-24T03:36:06.302Z,90.40
2017-11-24T03:38:37.824Z,90.70
2017-11-24T03:41:08.979Z,90.30
2017-11-24T03:43:40.315Z,90.10
2017-11-24T03:46:12.780Z,90.40
2017-11-24T03:48:45.168Z,90.30
2017-11-24T03:51:16.862Z,90.30
2017-11-24T03:53:47.897Z,90.40
2017-11-24T03:56:19.289Z,90.40
2017-11-24T03:58:51.455Z,90.10
2017-11-24T04:01:22.549Z,90.10
2017-11-24T04:03:54.407Z,90.30
2017-11-24T04:06:26.048Z,90.40
2017-11-24T04:08:58.093Z,90.70
2017-11-24T04:11:29.800Z,90.80
2017-11-24T04:14:02.362Z,90.70
2017-11-24T04:16:34.433Z,91.30
2017-11-24T04:19:05.842Z,91.10
2017-11-24T04:21:37.028Z,91.00
2017-11-24T04:24:09.095Z,91.00
2017-11-24T04:26:40.041Z,91.10
2017-11-24T04:29:11.021Z,90.90
2017-11-24T04:31:42.178Z,91.10
2017-11-24T04:34:14.408Z,90.90
2017-11-24T04:36:45.489Z,90.90
2017-11-24T04:40:19.898Z,90.90
2017-11-24T04:43:53.728Z,90.60
2017-11-24T04:46:25.828Z,90.80
2017-11-24T04:48:57.419Z,91.20
2017-11-24T04:51:28.981Z,91.20
2017-11-24T04:54:00.940Z,90.70
2017-11-24T04:56:31.735Z,90.70
2017-11-24T04:59:02.530Z,90.90
2017-11-24T05:01:34.464Z,90.80
2017-11-24T05:04:05.612Z,90.80
2017-11-24T05:08:14.393Z,91.20
2017-11-24T05:10:46.263Z,91.40
2017-11-24T05:13:18.322Z,90.90
2017-11-24T05:17:22.977Z,90.90
2017-11-24T05:19:54.842Z,90.80
2017-11-24T05:22:26.711Z,90.80
2017-11-24T05:24:58.342Z,90.80
2017-11-24T05:27:29.517Z,90.90
2017-11-24T05:30:00.693Z,90.90
2017-11-24T05:32:32.268Z,90.90
2017-11-24T05:36:52.944Z,90.70
2017-11-24T05:39:24.594Z,90.90
2017-11-24T05:41:55.430Z,91.10
2017-11-24T05:44:26.893Z,91.10
2017-11-24T05:46:57.912Z,91.20
2017-11-24T05:49:28.783Z,91.30
2017-11-24T05:53:39.256Z,91.70
2017-11-24T05:56:11.447Z,91.60
2017-11-24T05:58:42.031Z,91.60
2017-11-24T06:01:12.767Z,91.30
2017-11-24T06:03:43.530Z,91.10
2017-11-24T06:06:14.321Z,91.20
2017-11-24T06:08:45.530Z,90.70
2017-11-24T06:11:16.171Z,90.70
2017-11-24T06:13:47.827Z,90.60
2017-11-24T06:16:19.023Z,90.60
2017-11-24T06:18:50.012Z,90.70
2017-11-24T06:21:21.003Z,90.40
2017-11-24T06:23:51.637Z,90.80
2017-11-24T06:26:22.474Z,90.90
2017-11-24T06:28:53.300Z,91.00
2017-11-24T06:31:25.100Z,91.00
2017-11-24T06:33:57.103Z,91.00
2017-11-24T06:36:28.920Z,91.20
2017-11-24T06:39:00.309Z,91.20
2017-11-24T06:41:31.362Z,91.20
2017-11-24T06:44:04.507Z,91.40
2017-11-24T06:46:36.336Z,91.20
2017-11-24T06:49:07.096Z,91.20
2017-11-24T06:51:37.883Z,90.70
2017-11-24T06:54:08.972Z,91.00
2017-11-24T06:56:39.751Z,90.40
2017-11-24T06:59:11.594Z,90.50
2017-11-24T07:01:43.169Z,90.30
2017-11-24T07:04:15.768Z,90.30
2017-11-24T07:06:47.808Z,89.70
2017-11-24T07:09:19.750Z,90.00
2017-11-24T07:11:50.812Z,90.00
2017-11-24T07:14:21.604Z,89.40
2017-11-24T07:16:52.591Z,89.80
2017-11-24T07:19:23.371Z,90.20
2017-11-24T07:21:54.419Z,90.20
2017-11-24T07:24:26.387Z,89.80
2017-11-24T07:26:58.011Z,89.30
2017-11-24T07:29:29.259Z,89.30
2017-11-24T07:32:00.255Z,89.40
2017-11-24T07:34:31.479Z,89.20
2017-11-24T07:37:02.746Z,89.60
2017-11-24T07:39:34.740Z,90.50
2017-11-24T07:42:06.657Z,90.20
2017-11-24T07:44:37.455Z,90.20
2017-11-24T07:47:08.380Z,89.80
2017-11-24T07:49:39.245Z,89.10
2017-11-24T07:52:10.926Z,89.30
2017-11-24T07:54:42.655Z,89.20
2017-11-24T07:57:13.914Z,88.90
2017-11-24T07:59:44.647Z,88.90
2017-11-24T08:02:15.648Z,88.50
2017-11-24T08:04:47.054Z,87.90
2017-11-24T08:07:19.623Z,87.70
2017-11-24T08:09:50.711Z,87.90
2017-11-24T08:12:22.299Z,88.40
2017-11-24T08:14:53.631Z,88.40
2017-11-24T08:17:25.077Z,89.30
2017-11-24T08:19:55.998Z,88.80
2017-11-24T08:22:27.178Z,88.90
2017-11-24T08:24:58.151Z,88.90
2017-11-24T08:27:28.772Z,88.30
2017-11-24T08:29:59.645Z,88.00
2017-11-24T08:32:30.619Z,88.20
2017-11-24T08:35:02.420Z,87.00
2017-11-24T08:37:33.124Z,87.00
2017-11-24T08:40:04.101Z,86.70
2017-11-24T08:42:34.903Z,86.30
2017-11-24T08:45:05.731Z,85.90
2017-11-24T08:47:41.177Z,85.50
2017-11-24T08:50:11.815Z,85.40
2017-11-24T08:52:46.043Z,84.50
2017-11-24T08:55:43.637Z,83.00
2017-11-24T08:58:14.613Z,83.10
2017-11-24T09:00:45.327Z,83.40
2017-11-24T09:03:16.302Z,83.70
2017-11-24T09:05:47.361Z,83.50
2017-11-24T09:08:18.171Z,84.20
2017-11-24T09:10:48.819Z,84.10
2017-11-24T09:13:19.615Z,82.70
2017-11-24T09:15:50.816Z,82.40
2017-11-24T09:18:22.637Z,81.90
2017-11-24T09:20:53.590Z,81.90
2017-11-24T09:23:24.335Z,81.80
2017-11-24T09:25:55.361Z,81.60
2017-11-24T09:28:26.292Z,82.40
2017-11-24T09:30:57.175Z,81.60
2017-11-24T09:33:28.152Z,80.80
2017-11-24T09:35:58.827Z,81.90
2017-11-24T09:38:29.524Z,81.50
2017-11-24T09:41:00.644Z,81.80
2017-11-24T09:43:31.742Z,81.90
2017-11-24T09:46:02.836Z,80.20
2017-11-24T09:48:34.085Z,80.40
2017-11-24T09:51:05.073Z,78.90
2017-11-24T09:53:35.832Z,77.20
2017-11-24T09:56:08.032Z,77.40
2017-11-24T09:58:39.089Z,78.10
2017-11-24T10:01:10.411Z,75.10
2017-11-24T10:03:41.544Z,75.00
2017-11-24T10:06:12.452Z,74.00
2017-11-24T10:08:43.313Z,74.80
2017-11-24T10:11:15.262Z,75.00
2017-11-24T10:13:49.990Z,74.10
2017-11-24T10:16:23.177Z,69.70
2017-11-24T10:18:58.012Z,70.70
2017-11-24T10:21:37.112Z,71.30
2017-11-24T10:24:09.036Z,70.40
2017-11-24T10:26:39.732Z,68.90
2017-11-24T10:29:10.486Z,67.90
2017-11-24T10:31:42.752Z,68.50
2017-11-24T10:34:14.119Z,68.40
2017-11-24T10:36:45.349Z,68.00
2017-11-24T10:39:17.006Z,66.50
2017-11-24T10:41:49.154Z,63.80
2017-11-24T10:44:22.719Z,64.60
2017-11-24T10:46:53.580Z,64.50
2017-11-24T10:49:24.202Z,64.20
2017-11-24T10:51:55.043Z,64.30
2017-11-24T10:54:26.312Z,62.70
2017-11-24T10:56:58.686Z,64.30
2017-11-24T10:59:30.327Z,64.30
2017-11-24T11:02:01.615Z,65.70
2017-11-24T11:04:32.615Z,64.90
2017-11-24T11:07:03.544Z,64.50
2017-11-24T11:09:34.872Z,61.10
2017-11-24T11:12:05.649Z,59.40
2017-11-24T11:14:37.779Z,59.50
2017-11-24T11:17:09.178Z,59.50
2017-11-24T11:19:40.230Z,58.50
2017-11-24T11:22:11.643Z,59.90
2017-11-24T11:24:42.463Z,58.80
2017-11-24T11:27:13.082Z,58.20
2017-11-24T11:29:44.387Z,57.10
2017-11-24T11:32:15.284Z,56.90
2017-11-24T11:34:46.066Z,57.60
2017-11-24T11:37:17.212Z,59.70
2017-11-24T11:39:49.495Z,59.90
2017-11-24T11:42:20.411Z,59.90
2017-11-24T11:44:51.767Z,61.00
2017-11-24T11:47:22.904Z,60.40
2017-11-24T11:49:54.819Z,58.30
2017-11-24T11:52:25.525Z,58.20
2017-11-24T11:54:57.671Z,58.20
2017-11-24T11:57:28.899Z,58.10
2017-11-24T12:00:01.589Z,57.70
2017-11-24T12:02:33.870Z,56.40
2017-11-24T12:05:05.228Z,56.50
2017-11-24T12:07:36.313Z,56.40
2017-11-24T12:10:07.799Z,56.90
2017-11-24T12:12:39.044Z,60.40
2017-11-24T12:15:10.366Z,59.40
2017-11-24T12:17:41.811Z,58.40
2017-11-24T12:20:14.013Z,58.30
2017-11-24T12:22:45.165Z,57.90
2017-11-24T12:25:16.535Z,58.30
2017-11-24T12:27:47.420Z,57.60
2017-11-24T12:30:19.267Z,59.30
2017-11-24T12:32:50.015Z,59.20
2017-11-24T12:35:21.096Z,59.20
2017-11-24T12:37:52.597Z,60.30
2017-11-24T12:40:23.595Z,60.20
2017-11-24T12:42:54.406Z,59.50
2017-11-24T12:45:26.279Z,57.60
2017-11-24T12:47:57.677Z,57.60
2017-11-24T12:50:29.265Z,58.40
2017-11-24T12:53:00.256Z,58.40
2017-11-24T12:55:31.130Z,58.10
2017-11-24T12:58:02.020Z,58.80
2017-11-24T13:00:34.144Z,58.20
2017-11-24T13:03:05.376Z,58.10
2017-11-24T13:05:37.074Z,58.80
2017-11-24T13:08:08.156Z,58.70
2017-11-24T13:10:38.902Z,60.20
2017-11-24T13:13:10.252Z,59.20
2017-11-24T13:15:41.233Z,60.80
2017-11-24T13:18:12.933Z,61.10
2017-11-24T13:20:44.404Z,60.40
2017-11-24T13:23:15.662Z,61.60
2017-11-24T13:25:47.689Z,62.40
2017-11-24T13:28:18.827Z,62.30
2017-11-24T13:30:49.936Z,63.80
2017-11-24T13:33:20.765Z,63.60
2017-11-24T13:35:51.570Z,63.60
2017-11-24T13:38:22.829Z,63.40
2017-11-24T13:40:53.583Z,63.60
2017-11-24T13:43:24.588Z,63.50
2017-11-24T13:45:56.822Z,63.00
2017-11-24T13:48:35.223Z,64.60
2017-11-24T13:51:06.437Z,65.90
2017-11-24T13:53:37.547Z,64.20
2017-11-24T13:56:08.277Z,65.00
2017-11-24T17:29:24.511Z,90.40
2017-11-24T17:31:56.686Z,90.90
2017-11-24T17:34:30.069Z,90.90
2017-11-24T17:37:03.538Z,91.20
2017-11-24T17:39:38.123Z,91.30
2017-11-24T17:42:11.347Z,91.70
2017-11-24T17:44:43.500Z,91.70
2017-11-24T17:47:46.611Z,91.70
2017-11-24T17:52:18.923Z,91.60
2017-11-24T17:54:49.711Z,91.60
2017-11-24T17:58:40.525Z,91.50
2017-11-24T18:01:11.477Z,91.00
2017-11-24T18:03:43.716Z,91.00
2017-11-24T18:06:14.534Z,91.00
2017-11-24T18:08:45.466Z,90.80
2017-11-24T18:11:16.720Z,90.90
2017-11-24T18:13:48.343Z,90.20
2017-11-24T18:16:19.468Z,90.10
2017-11-24T18:18:51.667Z,89.90
2017-11-24T18:21:22.676Z,89.80
2017-11-24T18:23:54.145Z,89.70
2017-11-24T18:26:25.937Z,89.30
2017-11-24T18:28:59.960Z,89.60
2017-11-24T18:31:31.216Z,89.90
2017-11-24T18:34:02.508Z,90.00
2017-11-24T18:36:33.346Z,89.90
2017-11-24T18:39:04.689Z,89.60
2017-11-24T18:41:36.047Z,89.60
2017-11-24T18:44:07.958Z,88.80
2017-11-24T18:46:39.203Z,88.80
2017-11-24T18:49:10.552Z,89.50
2017-11-24T18:51:41.639Z,90.10
2017-11-24T18:54:12.823Z,90.70
2017-11-24T18:56:44.627Z,91.30
2017-11-24T19:00:58.927Z,92.00
2017-11-24T19:03:30.412Z,92.00
2017-11-24T19:06:01.863Z,91.80
2017-11-24T19:08:32.942Z,91.40
2017-11-24T19:11:04.129Z,91.30
2017-11-24T19:13:35.847Z,91.60
2017-11-24T19:16:07.028Z,91.20
2017-11-24T19:18:38.839Z,90.80
2017-11-24T19:21:09.749Z,90.80
2017-11-24T19:23:41.501Z,90.60
2017-11-24T19:26:12.905Z,90.60
2017-11-24T19:28:45.772Z,90.30
2017-11-24T19:31:17.663Z,90.50
2017-11-24T19:33:48.767Z,90.50
2017-11-24T19:36:19.928Z,90.70
2017-11-24T19:38:50.912Z,90.70
2017-11-24T19:41:21.991Z,91.20
2017-11-24T19:43:53.039Z,92.00
2017-11-24T19:46:23.946Z,92.20
2017-11-24T19:48:56.085Z,91.60
2017-11-24T19:51:27.729Z,91.90
2017-11-24T19:53:58.764Z,91.90
2017-11-24T19:56:29.993Z,91.70
2017-11-24T19:59:00.840Z,91.50
2017-11-24T20:01:31.952Z,91.40
2017-11-24T20:04:03.206Z,91.10
2017-11-24T20:06:34.290Z,91.00
2017-11-24T20:09:05.573Z,90.90
2017-11-24T20:11:37.191Z,91.20
2017-11-24T20:14:08.544Z,91.30
2017-11-24T20:16:40.273Z,91.50
2017-11-24T20:19:11.124Z,91.50
2017-11-24T20:21:44.877Z,91.80
2017-11-24T20:24:15.816Z,91.80
2017-11-24T20:26:48.650Z,93.20
2017-11-24T20:29:20.115Z,93.20
2017-11-24T20:31:51.990Z,94.00
2017-11-24T20:34:23.828Z,93.80
2017-11-24T20:36:55.884Z,93.60
2017-11-24T20:39:26.946Z,93.60
2017-11-24T20:41:57.819Z,92.90
2017-11-24T20:44:29.550Z,92.60
2017-11-24T20:47:01.352Z,92.30
2017-11-24T20:49:33.328Z,92.10
2017-11-24T20:52:06.039Z,92.10
2017-11-24T20:54:38.271Z,91.90
2017-11-24T20:57:10.183Z,92.10
2017-11-24T20:59:41.273Z,92.10
2017-11-24T21:02:13.017Z,92.20
2017-11-24T21:04:44.446Z,92.60
2017-11-24T21:07:15.629Z,92.60
2017-11-24T21:09:46.644Z,92.80
2017-11-24T21:12:20.350Z,93.30
2017-11-24T21:14:51.370Z,93.40
2017-11-24T21:17:23.471Z,93.70
2017-11-24T21:19:54.268Z,93.70
2017-11-24T21:22:25.102Z,94.30
2017-11-24T21:24:57.538Z,95.00
2017-11-24T21:27:28.435Z,95.10
2017-11-24T21:30:00.568Z,94.30
2017-11-24T21:32:31.801Z,94.30
2017-11-24T21:35:04.949Z,93.50
2017-11-24T21:37:36.344Z,93.30
2017-11-24T21:40:07.303Z,93.30
2017-11-24T21:42:38.470Z,93.60
2017-11-24T21:45:09.342Z,93.50
2017-11-24T21:47:41.295Z,93.50
2017-11-24T21:50:12.277Z,93.50
2017-11-24T21:52:43.151Z,93.40
2017-11-24T21:55:14.199Z,93.60
2017-11-24T21:57:45.028Z,93.00
2017-11-24T22:00:15.806Z,92.90
2017-11-24T22:02:46.548Z,93.40
2017-11-24T22:05:18.923Z,93.50
2017-11-24T22:07:51.575Z,93.90
2017-11-24T22:10:22.883Z,93.60
2017-11-24T22:12:54.860Z,94.20
2017-11-24T22:15:26.577Z,94.20
2017-11-24T22:17:57.815Z,94.00
2017-11-24T22:20:28.969Z,94.00
2017-11-24T22:23:00.034Z,94.30
2017-11-24T22:25:31.743Z,95.10
2017-11-24T22:28:03.691Z,94.60
2017-11-24T22:30:35.195Z,94.60
2017-11-24T22:33:06.421Z,94.50
2017-11-24T22:35:38.671Z,94.70
2017-11-24T22:38:09.766Z,94.80
2017-11-24T22:40:40.875Z,94.70
2017-11-24T22:43:12.081Z,94.30
2017-11-24T22:45:43.218Z,94.10
2017-11-24T22:48:14.235Z,94.20
2017-11-24T22:50:44.950Z,94.30
2017-11-24T22:53:16.026Z,94.50
2017-11-24T22:55:47.991Z,94.40
2017-11-24T22:58:19.483Z,94.50
2017-11-24T23:00:50.138Z,94.50
2017-11-24T23:03:21.263Z,94.10
2017-11-24T23:05:52.701Z,94.00
2017-11-24T23:08:23.720Z,93.80
2017-11-24T23:10:54.971Z,93.80
2017-11-24T23:13:26.079Z,94.10
2017-11-24T23:15:57.793Z,94.00
2017-11-24T23:18:31.121Z,94.00
2017-11-24T23:21:01.792Z,94.10
2017-11-24T23:23:32.583Z,94.10
2017-11-24T23:26:03.989Z,94.30
2017-11-24T23:28:34.723Z,94.40
2017-11-24T23:31:06.213Z,94.60
2017-11-24T23:33:37.218Z,95.10
2017-11-24T23:36:09.022Z,96.00
2017-11-24T23:38:40.809Z,96.40
2017-11-24T23:41:11.122Z,96.40
2017-11-24T23:43:42.255Z,96.90
2017-11-24T23:46:13.088Z,96.80
2017-11-24T23:48:43.787Z,96.80
2017-11-24T23:51:14.329Z,96.80
2017-11-24T23:53:45.362Z,96.70
2017-11-24T23:56:15.860Z,96.40
2017-11-24T23:58:46.913Z,95.80
